Time;durP1;ratioP1;P1;durP2;ratioP2;P2;SDS_P1;SDS_P2;PMS_P1;PMS_P2;Temp;Humidity;BMP_temperature;BMP_pressure;BME280_temperature;BME280_humidity;BME280_pressure;Samples;Min_cycle;Max_cycle;Signal;HPM_P1;HPM_P2
2023/04/21 00:01:20;;;;;;;9.47;6.87;;;;;;;;;;5033267;28;20228;-53
2023/04/21 00:03:46;;;;;;;9.97;7.17;;;;;;;;;;5033334;28;20197;-52
2023/04/21 00:06:12;;;;;;;9.90;7.57;;;;;;;;;;5033470;28;20228;-53
2023/04/21 00:08:40;;;;;;;10.00;7.27;;;;;;;;;;5033299;28;20197;-51
2023/04/21 00:11:06;;;;;;;8.60;6.33;;;;;;;;;;5033115;28;20205;-53
2023/04/21 00:13:32;;;;;;;6.43;5.73;;;;;;;;;;5033267;28;20193;-53
2023/04/21 00:15:58;;;;;;;8.70;7.67;;;;;;;;;;5033136;28;20197;-53
2023/04/21 00:18:26;;;;;;;9.23;7.13;;;;;;;;;;5033338;28;20197;-53
2023/04/21 00:20:52;;;;;;;9.40;6.80;;;;;;;;;;5033340;28;20200;-53
2023/04/21 00:23:18;;;;;;;10.03;6.57;;;;;;;;;;5032974;28;20203;-53
2023/04/21 00:25:45;;;;;;;13.40;7.27;;;;;;;;;;5032800;28;20236;-53
2023/04/21 00:28:11;;;;;;;14.93;6.87;;;;;;;;;;5032966;28;20205;-53
2023/04/21 00:30:37;;;;;;;8.13;6.77;;;;;;;;;;5033009;28;20189;-52
2023/04/21 00:33:03;;;;;;;8.03;6.40;;;;;;;;;;5032681;28;20196;-53
2023/04/21 00:35:29;;;;;;;9.80;7.30;;;;;;;;;;5032744;28;20689;-53
2023/04/21 00:37:55;;;;;;;7.00;6.30;;;;;;;;;;5032917;28;20209;-53
2023/04/21 00:40:21;;;;;;;10.00;6.93;;;;;;;;;;5032527;28;20193;-53
2023/04/21 00:42:49;;;;;;;10.40;6.30;;;;;;;;;;5032512;28;20445;-53
2023/04/21 00:45:15;;;;;;;9.23;6.57;;;;;;;;;;5032431;28;20252;-54
2023/04/21 00:47:41;;;;;;;8.77;6.67;;;;;;;;;;5032702;28;20197;-53
2023/04/21 00:50:07;;;;;;;7.73;6.77;;;;;;;;;;5032436;28;20201;-53
2023/04/21 00:52:33;;;;;;;9.20;6.93;;;;;;;;;;5032447;28;20189;-53
2023/04/21 00:54:59;;;;;;;8.53;6.17;;;;;;;;;;5032314;28;20196;-53
2023/04/21 00:57:27;;;;;;;9.07;6.77;;;;;;;;;;5031679;28;20213;-53
2023/04/21 00:59:54;;;;;;;7.67;6.30;;;;;;;;;;5032227;28;20657;-53
2023/04/21 01:02:21;;;;;;;11.63;6.67;;;;;;;;;;5032104;28;20215;-53
2023/04/21 01:04:47;;;;;;;8.70;6.07;;;;;;;;;;5032124;28;20227;-53
2023/04/21 01:07:13;;;;;;;7.03;6.20;;;;;;;;;;5032127;28;20201;-53
2023/04/21 01:09:39;;;;;;;12.73;7.17;;;;;;;;;;5032458;28;20227;-53
2023/04/21 01:12:06;;;;;;;7.10;5.80;;;;;;;;;;5031942;28;20209;-52
2023/04/21 01:14:32;;;;;;;8.23;6.23;;;;;;;;;;5032119;28;20431;-52
2023/04/21 01:16:59;;;;;;;8.57;6.03;;;;;;;;;;5032250;28;20231;-52
2023/04/21 01:19:28;;;;;;;7.57;6.40;;;;;;;;;;5032051;28;20288;-53
2023/04/21 01:21:59;;;;;;;8.53;6.53;;;;;;;;;;5032005;28;20223;-52
2023/04/21 01:24:34;;;;;;;7.63;6.77;;;;;;;;;;5032030;28;20201;-52
2023/04/21 01:27:00;;;;;;;7.63;6.13;;;;;;;;;;5031692;28;20584;-53
2023/04/21 01:29:26;;;;;;;8.27;6.80;;;;;;;;;;5031804;28;20211;-52
2023/04/21 01:31:52;;;;;;;8.27;5.80;;;;;;;;;;5031761;28;20205;-52
2023/04/21 01:34:18;;;;;;;9.80;5.37;;;;;;;;;;5031647;28;20220;-52
2023/04/21 01:36:44;;;;;;;12.23;7.33;;;;;;;;;;5031573;28;20225;-52
2023/04/21 01:39:12;;;;;;;8.03;6.40;;;;;;;;;;5031674;28;20633;-52
2023/04/21 01:41:38;;;;;;;10.83;7.17;;;;;;;;;;5031652;28;20199;-52
2023/04/21 01:44:04;;;;;;;6.20;5.60;;;;;;;;;;5031454;28;20471;-52
2023/04/21 01:46:30;;;;;;;8.63;6.30;;;;;;;;;;5031427;28;20302;-52
2023/04/21 01:48:56;;;;;;;7.70;6.00;;;;;;;;;;5031556;28;20583;-52
2023/04/21 01:51:22;;;;;;;8.17;6.00;;;;;;;;;;5031327;28;20185;-52
2023/04/21 01:53:48;;;;;;;10.10;6.13;;;;;;;;;;5031550;28;20734;-52
2023/04/21 01:56:15;;;;;;;9.83;6.83;;;;;;;;;;5031097;28;20243;-53
2023/04/21 01:58:41;;;;;;;8.20;6.00;;;;;;;;;;5031318;28;20237;-52
2023/04/21 02:01:07;;;;;;;5.77;5.20;;;;;;;;;;5031219;28;20208;-52
2023/04/21 02:03:33;;;;;;;7.87;6.17;;;;;;;;;;5031163;28;20663;-52
2023/04/21 02:05:59;;;;;;;9.30;6.63;;;;;;;;;;5031062;28;20592;-52
2023/04/21 02:08:25;;;;;;;9.80;6.60;;;;;;;;;;5031479;28;20678;-52
2023/04/21 02:10:51;;;;;;;7.43;6.40;;;;;;;;;;5030974;28;20201;-52
2023/04/21 02:13:19;;;;;;;7.30;6.60;;;;;;;;;;5030976;28;20213;-53
2023/04/21 02:15:45;;;;;;;6.77;5.97;;;;;;;;;;5031163;28;20205;-53
2023/04/21 02:18:12;;;;;;;10.33;6.13;;;;;;;;;;5031141;28;20216;-53
2023/04/21 02:20:38;;;;;;;11.03;7.20;;;;;;;;;;5031264;28;20204;-53
2023/04/21 02:23:04;;;;;;;7.43;6.60;;;;;;;;;;5030951;28;20197;-53
2023/04/21 02:25:30;;;;;;;11.20;6.27;;;;;;;;;;5030880;28;20228;-52
2023/04/21 02:27:56;;;;;;;9.23;5.83;;;;;;;;;;5031096;28;20279;-52
2023/04/21 02:30:23;;;;;;;7.17;6.47;;;;;;;;;;5030924;28;20550;-52
2023/04/21 02:32:49;;;;;;;10.33;6.40;;;;;;;;;;5030978;28;20207;-52
2023/04/21 02:35:15;;;;;;;9.27;6.50;;;;;;;;;;5030874;28;20243;-53
2023/04/21 02:37:41;;;;;;;8.03;6.37;;;;;;;;;;5031213;28;20201;-53
2023/04/21 02:40:08;;;;;;;8.50;7.17;;;;;;;;;;5030859;28;20606;-53
2023/04/21 02:42:34;;;;;;;8.90;6.50;;;;;;;;;;5030941;28;20284;-53
2023/04/21 02:45:00;;;;;;;7.30;5.67;;;;;;;;;;5030719;28;20660;-53
2023/04/21 02:47:27;;;;;;;12.13;7.00;;;;;;;;;;5031130;28;20204;-53
2023/04/21 02:49:53;;;;;;;8.13;6.13;;;;;;;;;;5030955;28;20239;-53
2023/04/21 02:52:19;;;;;;;9.40;6.60;;;;;;;;;;5030967;28;20259;-53
2023/04/21 02:54:45;;;;;;;8.40;6.13;;;;;;;;;;5030849;28;20196;-53
2023/04/21 02:57:11;;;;;;;9.07;6.03;;;;;;;;;;5030730;28;20626;-53
2023/04/21 02:59:37;;;;;;;10.37;6.03;;;;;;;;;;5030630;28;20269;-52
2023/04/21 03:02:03;;;;;;;6.67;6.00;;;;;;;;;;5030687;28;20220;-55
2023/04/21 03:04:32;;;;;;;7.97;6.50;;;;;;;;;;5030678;28;20199;-52
2023/04/21 03:06:58;;;;;;;8.50;6.23;;;;;;;;;;5030721;28;20208;-52
2023/04/21 03:09:24;;;;;;;7.90;5.83;;;;;;;;;;5030721;28;20546;-52
2023/04/21 03:11:50;;;;;;;7.70;5.87;;;;;;;;;;5030595;28;20665;-52
2023/04/21 03:14:16;;;;;;;8.63;5.47;;;;;;;;;;5030415;28;20197;-52
2023/04/21 03:16:42;;;;;;;10.67;5.93;;;;;;;;;;5030722;28;20262;-52
2023/04/21 03:19:08;;;;;;;12.43;6.90;;;;;;;;;;5030503;28;20225;-52
2023/04/21 03:21:37;;;;;;;8.37;6.10;;;;;;;;;;5032540;28;20544;-52
2023/04/21 03:24:04;;;;;;;9.63;6.63;;;;;;;;;;5034026;28;20205;-52
2023/04/21 03:26:30;;;;;;;11.70;6.60;;;;;;;;;;5033832;28;20593;-54
2023/04/21 03:28:56;;;;;;;7.53;5.93;;;;;;;;;;5034146;28;20287;-52
2023/04/21 03:31:22;;;;;;;7.50;6.37;;;;;;;;;;5033877;28;20197;-52
2023/04/21 03:33:48;;;;;;;8.73;6.23;;;;;;;;;;5034065;28;20563;-52
2023/04/21 03:36:14;;;;;;;8.80;6.50;;;;;;;;;;5033916;28;20224;-52
2023/04/21 03:38:42;;;;;;;9.93;6.07;;;;;;;;;;5033959;28;20682;-55
2023/04/21 03:41:08;;;;;;;6.73;5.20;;;;;;;;;;5033784;28;20207;-53
2023/04/21 03:43:35;;;;;;;6.23;5.37;;;;;;;;;;5033735;28;20201;-52
2023/04/21 03:46:02;;;;;;;7.53;5.90;;;;;;;;;;5033643;28;20229;-52
2023/04/21 03:48:28;;;;;;;8.90;6.20;;;;;;;;;;5033661;28;20228;-52
2023/04/21 03:50:54;;;;;;;7.83;5.50;;;;;;;;;;5033821;28;20216;-53
2023/04/21 03:53:20;;;;;;;8.87;5.73;;;;;;;;;;5033486;28;20280;-53
2023/04/21 03:55:49;;;;;;;6.23;5.30;;;;;;;;;;5033478;28;20727;-53
2023/04/21 03:58:15;;;;;;;12.03;5.90;;;;;;;;;;5033455;28;20291;-53
2023/04/21 04:00:41;;;;;;;8.47;6.20;;;;;;;;;;5033685;28;20207;-53
2023/04/21 04:03:07;;;;;;;8.57;5.80;;;;;;;;;;5033356;28;20193;-53
2023/04/21 04:05:34;;;;;;;9.70;6.53;;;;;;;;;;5033374;28;20780;-53
2023/04/21 04:08:00;;;;;;;8.67;6.20;;;;;;;;;;5033204;28;20209;-53
2023/04/21 04:10:26;;;;;;;9.00;5.87;;;;;;;;;;5033363;28;20201;-53
2023/04/21 04:12:54;;;;;;;8.10;5.60;;;;;;;;;;5033361;28;20602;-53
2023/04/21 04:15:20;;;;;;;9.23;5.80;;;;;;;;;;5033074;28;20203;-53
2023/04/21 04:17:46;;;;;;;9.00;5.93;;;;;;;;;;5033230;28;20193;-53
2023/04/21 04:20:12;;;;;;;6.93;6.23;;;;;;;;;;5033228;28;20595;-53
2023/04/21 04:22:38;;;;;;;7.47;5.53;;;;;;;;;;5033314;28;20208;-53
2023/04/21 04:25:04;;;;;;;9.67;6.57;;;;;;;;;;5032599;28;20317;-53
2023/04/21 04:27:31;;;;;;;8.77;6.07;;;;;;;;;;5032744;28;20200;-53
2023/04/21 04:29:58;;;;;;;10.60;6.27;;;;;;;;;;5033087;28;20201;-54
2023/04/21 04:32:27;;;;;;;9.03;5.80;;;;;;;;;;5032210;28;20216;-53
2023/04/21 04:34:56;;;;;;;10.13;6.20;;;;;;;;;;5032966;28;20208;-53
2023/04/21 04:37:22;;;;;;;9.80;6.67;;;;;;;;;;5032726;28;20197;-53
2023/04/21 04:39:49;;;;;;;9.80;6.27;;;;;;;;;;5032692;28;20793;-53
2023/04/21 04:42:15;;;;;;;9.90;6.07;;;;;;;;;;5032509;28;20201;-53
2023/04/21 04:44:41;;;;;;;9.57;6.60;;;;;;;;;;5032755;28;20208;-53
2023/04/21 04:47:08;;;;;;;7.57;5.80;;;;;;;;;;5032556;28;20268;-53
2023/04/21 04:49:34;;;;;;;6.17;5.57;;;;;;;;;;5032564;28;20201;-53
2023/04/21 04:52:00;;;;;;;11.23;5.97;;;;;;;;;;5032483;28;20220;-53
2023/04/21 04:54:28;;;;;;;9.77;6.70;;;;;;;;;;5032546;28;20243;-53
2023/04/21 04:56:54;;;;;;;7.80;6.30;;;;;;;;;;5032408;28;20217;-53
2023/04/21 04:59:20;;;;;;;8.70;6.70;;;;;;;;;;5032086;28;20245;-53
2023/04/21 05:01:46;;;;;;;8.70;6.27;;;;;;;;;;5032305;28;20192;-53
2023/04/21 05:04:16;;;;;;;10.70;5.90;;;;;;;;;;5032278;28;20679;-53
2023/04/21 05:06:42;;;;;;;11.13;6.70;;;;;;;;;;5032200;28;20780;-53
2023/04/21 05:09:09;;;;;;;9.60;6.17;;;;;;;;;;5032207;28;20741;-54
2023/04/21 05:11:35;;;;;;;13.40;6.50;;;;;;;;;;5032004;28;20211;-53
2023/04/21 05:14:01;;;;;;;8.60;5.67;;;;;;;;;;5031977;28;20197;-53
2023/04/21 05:16:27;;;;;;;10.43;6.33;;;;;;;;;;5031716;28;20284;-53
2023/04/21 05:18:53;;;;;;;7.97;5.73;;;;;;;;;;5031969;28;20236;-53
2023/04/21 05:21:26;;;;;;;8.40;5.53;;;;;;;;;;5031681;28;20521;-53
2023/04/21 05:23:52;;;;;;;10.10;5.67;;;;;;;;;;5031956;28;20205;-54
2023/04/21 05:26:18;;;;;;;8.90;5.10;;;;;;;;;;5031566;28;20251;-53
2023/04/21 05:28:44;;;;;;;7.37;5.47;;;;;;;;;;5031961;28;20721;-53
2023/04/21 05:31:10;;;;;;;8.77;5.67;;;;;;;;;;5031803;28;20196;-54
2023/04/21 05:33:36;;;;;;;9.40;6.30;;;;;;;;;;5031551;28;20201;-53
2023/04/21 05:36:01;;;;;;;7.47;5.80;;;;;;;;;;5031644;28;20423;-53
2023/04/21 05:38:29;;;;;;;7.47;5.53;;;;;;;;;;5031761;28;20245;-53
2023/04/21 05:40:55;;;;;;;7.83;5.97;;;;;;;;;;5031647;28;20197;-53
2023/04/21 05:43:22;;;;;;;9.00;6.13;;;;;;;;;;5031147;28;20255;-53
2023/04/21 05:45:47;;;;;;;9.90;5.73;;;;;;;;;;5031479;28;20225;-53
2023/04/21 05:48:14;;;;;;;7.93;5.10;;;;;;;;;;5031406;28;20299;-53
2023/04/21 05:50:40;;;;;;;7.57;5.63;;;;;;;;;;5031636;28;20280;-53
2023/04/21 05:53:06;;;;;;;7.53;5.47;;;;;;;;;;5031374;28;20279;-53
2023/04/21 05:55:34;;;;;;;12.63;6.30;;;;;;;;;;5031335;28;20201;-53
2023/04/21 05:58:00;;;;;;;8.07;5.87;;;;;;;;;;5031091;28;20245;-53
2023/04/21 06:00:26;;;;;;;11.90;6.10;;;;;;;;;;5031376;28;20197;-53
2023/04/21 06:02:52;;;;;;;10.13;5.87;;;;;;;;;;5031347;28;20247;-53
2023/04/21 06:05:18;;;;;;;9.60;5.87;;;;;;;;;;5031132;28;20256;-53
2023/04/21 06:07:44;;;;;;;10.73;6.07;;;;;;;;;;5031342;28;20208;-53
2023/04/21 06:10:11;;;;;;;8.70;5.50;;;;;;;;;;5031225;28;20201;-53
2023/04/21 06:12:38;;;;;;;8.50;5.20;;;;;;;;;;5031226;28;20193;-53
2023/04/21 06:15:05;;;;;;;11.13;5.67;;;;;;;;;;5031086;28;20221;-52
2023/04/21 06:17:31;;;;;;;7.40;5.60;;;;;;;;;;5030829;28;20204;-53
2023/04/21 06:19:57;;;;;;;10.27;6.50;;;;;;;;;;5031236;28;20725;-53
2023/04/21 06:22:23;;;;;;;8.17;5.77;;;;;;;;;;5031046;28;20204;-53
2023/04/21 06:24:49;;;;;;;9.20;5.50;;;;;;;;;;5030973;28;20296;-53
2023/04/21 06:27:15;;;;;;;7.77;5.77;;;;;;;;;;5031056;28;20651;-53
2023/04/21 06:29:43;;;;;;;10.47;6.27;;;;;;;;;;5031171;28;20193;-53
2023/04/21 06:32:09;;;;;;;10.73;6.23;;;;;;;;;;5031096;28;20263;-53
2023/04/21 06:34:35;;;;;;;6.30;5.03;;;;;;;;;;5031060;28;20204;-54
2023/04/21 06:37:01;;;;;;;5.87;5.27;;;;;;;;;;5030949;28;20196;-54
2023/04/21 06:39:27;;;;;;;8.63;5.57;;;;;;;;;;5030914;28;20201;-53
2023/04/21 06:41:54;;;;;;;9.53;6.07;;;;;;;;;;5030963;28;20689;-53
2023/04/21 06:44:20;;;;;;;11.13;6.00;;;;;;;;;;5030732;28;20201;-53
2023/04/21 06:46:47;;;;;;;8.07;5.67;;;;;;;;;;5030729;28;20229;-54
2023/04/21 06:49:13;;;;;;;10.80;5.93;;;;;;;;;;5030853;28;20297;-54
2023/04/21 06:51:39;;;;;;;11.00;5.60;;;;;;;;;;5031037;28;20722;-52
2023/04/21 06:54:05;;;;;;;8.17;6.53;;;;;;;;;;5030711;28;20287;-52
2023/04/21 06:56:32;;;;;;;8.40;5.57;;;;;;;;;;5032625;28;20279;-53
2023/04/21 06:58:58;;;;;;;10.10;5.47;;;;;;;;;;5034580;28;20239;-53
2023/04/21 07:01:24;;;;;;;9.63;5.87;;;;;;;;;;5034695;28;20204;-54
2023/04/21 07:03:51;;;;;;;9.03;5.20;;;;;;;;;;5034608;28;20197;-53
2023/04/21 07:06:18;;;;;;;7.97;5.90;;;;;;;;;;5034236;28;20311;-52
2023/04/21 07:08:44;;;;;;;7.47;5.43;;;;;;;;;;5034569;28;20193;-55
2023/04/21 07:11:10;;;;;;;6.73;5.50;;;;;;;;;;5034495;28;20200;-53
2023/04/21 07:13:36;;;;;;;9.77;5.63;;;;;;;;;;5034284;28;20655;-53
2023/04/21 07:16:02;;;;;;;8.40;5.77;;;;;;;;;;5034252;28;20254;-53
2023/04/21 07:18:28;;;;;;;10.60;5.63;;;;;;;;;;5034156;28;20255;-52
2023/04/21 07:20:55;;;;;;;7.67;5.20;;;;;;;;;;5034579;28;20200;-53
2023/04/21 07:23:21;;;;;;;11.17;6.03;;;;;;;;;;5034192;28;20571;-52
2023/04/21 07:25:47;;;;;;;6.53;5.40;;;;;;;;;;5033895;28;20729;-53
2023/04/21 07:28:14;;;;;;;10.97;6.03;;;;;;;;;;5033980;28;20201;-53
2023/04/21 07:30:40;;;;;;;10.23;5.47;;;;;;;;;;5034290;28;20205;-53
2023/04/21 07:33:07;;;;;;;7.37;5.20;;;;;;;;;;5033963;28;20247;-53
2023/04/21 07:35:33;;;;;;;9.30;5.53;;;;;;;;;;5034057;28;20368;-52
2023/04/21 07:38:01;;;;;;;9.93;5.43;;;;;;;;;;5033808;28;20201;-53
2023/04/21 07:40:27;;;;;;;15.70;6.70;;;;;;;;;;5033928;28;20205;-54
2023/04/21 07:42:53;;;;;;;8.33;5.07;;;;;;;;;;5033850;28;20208;-54
2023/04/21 07:45:19;;;;;;;7.60;5.40;;;;;;;;;;5033560;28;20225;-54
2023/04/21 07:47:45;;;;;;;10.90;5.80;;;;;;;;;;5033675;28;20209;-53
2023/04/21 07:50:12;;;;;;;10.60;6.00;;;;;;;;;;5033774;28;20213;-54
2023/04/21 07:52:38;;;;;;;9.53;5.73;;;;;;;;;;5033766;28;20254;-54
2023/04/21 07:55:05;;;;;;;9.00;5.10;;;;;;;;;;5033508;28;20462;-53
2023/04/21 07:57:33;;;;;;;11.73;5.73;;;;;;;;;;5033519;28;20232;-53
2023/04/21 07:59:59;;;;;;;8.87;5.70;;;;;;;;;;5033246;28;20307;-51
2023/04/21 08:02:25;;;;;;;10.27;5.77;;;;;;;;;;5033764;28;20731;-52
2023/04/21 08:04:51;;;;;;;10.73;5.70;;;;;;;;;;5033446;28;20234;-54
2023/04/21 08:07:17;;;;;;;7.87;5.00;;;;;;;;;;5032790;28;20315;-54
2023/04/21 08:09:43;;;;;;;12.87;5.40;;;;;;;;;;5033334;28;20291;-53
2023/04/21 08:12:11;;;;;;;10.67;5.73;;;;;;;;;;5033271;28;20193;-54
2023/04/21 08:14:37;;;;;;;11.83;5.40;;;;;;;;;;5033549;28;20292;-54
2023/04/21 08:17:03;;;;;;;10.47;5.47;;;;;;;;;;5033205;28;20470;-53
2023/04/21 08:19:29;;;;;;;11.37;5.80;;;;;;;;;;5033063;28;20196;-54
2023/04/21 08:21:55;;;;;;;8.80;5.50;;;;;;;;;;5033334;28;20653;-54
2023/04/21 08:24:21;;;;;;;9.47;5.47;;;;;;;;;;5032899;28;20674;-54
2023/04/21 08:26:47;;;;;;;10.93;5.03;;;;;;;;;;5032995;28;20233;-54
2023/04/21 08:29:15;;;;;;;8.47;5.27;;;;;;;;;;5032916;28;20255;-54
2023/04/21 08:31:41;;;;;;;11.23;5.00;;;;;;;;;;5032968;28;20280;-54
2023/04/21 08:34:07;;;;;;;11.07;5.17;;;;;;;;;;5032850;28;20202;-54
2023/04/21 08:36:33;;;;;;;11.07;4.80;;;;;;;;;;5032715;28;20230;-53
2023/04/21 08:39:00;;;;;;;10.20;5.33;;;;;;;;;;5032666;28;20285;-53
2023/04/21 08:41:26;;;;;;;11.13;4.83;;;;;;;;;;5032868;28;20197;-53
2023/04/21 08:43:52;;;;;;;8.77;5.83;;;;;;;;;;5032737;28;20240;-53
2023/04/21 08:46:20;;;;;;;11.17;5.67;;;;;;;;;;5032162;28;20232;-53
2023/04/21 08:48:46;;;;;;;12.37;5.83;;;;;;;;;;5032636;28;20298;-54
2023/04/21 08:51:14;;;;;;;9.13;5.07;;;;;;;;;;5032573;28;20256;-53
2023/04/21 08:53:40;;;;;;;9.57;4.83;;;;;;;;;;5032660;28;20219;-54
2023/04/21 08:56:06;;;;;;;12.63;5.17;;;;;;;;;;5032343;28;20210;-54
2023/04/21 08:58:32;;;;;;;9.50;4.87;;;;;;;;;;5032067;28;20740;-54
2023/04/21 09:00:58;;;;;;;10.03;4.73;;;;;;;;;;5032396;28;20230;-53
2023/04/21 09:03:27;;;;;;;8.57;5.00;;;;;;;;;;5032529;28;20202;-51
2023/04/21 09:05:59;;;;;;;9.37;5.20;;;;;;;;;;5032609;28;20232;-52
2023/04/21 09:08:26;;;;;;;8.73;4.97;;;;;;;;;;5032548;28;20278;-53
2023/04/21 09:10:53;;;;;;;11.53;5.33;;;;;;;;;;5032432;28;20206;-53
2023/04/21 09:13:19;;;;;;;5.83;4.53;;;;;;;;;;5032256;28;20199;-53
2023/04/21 09:15:46;;;;;;;11.60;5.20;;;;;;;;;;5032292;28;20202;-53
2023/04/21 09:18:13;;;;;;;8.30;4.50;;;;;;;;;;5031679;28;20693;-52
2023/04/21 09:20:42;;;;;;;11.73;4.67;;;;;;;;;;5032371;28;20279;-53
2023/04/21 09:23:08;;;;;;;8.70;4.80;;;;;;;;;;5032384;28;20279;-53
2023/04/21 09:25:34;;;;;;;8.50;4.77;;;;;;;;;;5031956;28;20401;-52
2023/04/21 09:28:00;;;;;;;9.37;4.63;;;;;;;;;;5032116;28;20201;-53
2023/04/21 09:30:26;;;;;;;6.73;4.43;;;;;;;;;;5032108;28;20201;-53
2023/04/21 09:32:56;;;;;;;11.53;4.73;;;;;;;;;;5032137;28;20199;-53
2023/04/21 09:35:22;;;;;;;10.67;4.50;;;;;;;;;;5031815;28;20200;-53
2023/04/21 09:37:49;;;;;;;9.30;4.67;;;;;;;;;;5031926;28;20201;-53
2023/04/21 09:40:17;;;;;;;6.97;4.10;;;;;;;;;;5031383;28;20667;-53
2023/04/21 09:42:43;;;;;;;8.73;4.50;;;;;;;;;;5031771;28;20228;-53
2023/04/21 09:45:10;;;;;;;7.37;4.20;;;;;;;;;;5031534;28;20663;-53
2023/04/21 09:47:39;;;;;;;8.80;4.53;;;;;;;;;;5031513;28;20193;-53
2023/04/21 09:50:06;;;;;;;7.80;3.80;;;;;;;;;;5031389;28;20252;-53
2023/04/21 09:52:32;;;;;;;7.40;4.03;;;;;;;;;;5031161;28;20288;-54
2023/04/21 09:55:03;;;;;;;7.50;3.93;;;;;;;;;;5029315;28;20243;-53
2023/04/21 09:57:30;;;;;;;9.00;4.27;;;;;;;;;;5031624;28;20275;-52
2023/04/21 09:59:59;;;;;;;8.87;4.00;;;;;;;;;;5031599;28;20241;-52
2023/04/21 10:02:26;;;;;;;10.83;3.90;;;;;;;;;;5031635;28;20202;-53
2023/04/21 10:04:52;;;;;;;8.17;3.77;;;;;;;;;;5031488;28;20201;-53
2023/04/21 10:07:18;;;;;;;5.93;3.27;;;;;;;;;;5031343;28;20225;-53
2023/04/21 10:09:45;;;;;;;6.23;3.60;;;;;;;;;;5031483;28;20542;-53
2023/04/21 10:12:13;;;;;;;8.57;4.20;;;;;;;;;;5031522;28;20211;-53
2023/04/21 10:14:39;;;;;;;10.73;4.33;;;;;;;;;;5031324;28;20203;-52
2023/04/21 10:17:06;;;;;;;10.13;4.00;;;;;;;;;;5031097;28;20205;-53
2023/04/21 10:19:35;;;;;;;6.07;3.80;;;;;;;;;;5030895;28;20291;-53
2023/04/21 10:22:01;;;;;;;7.53;3.90;;;;;;;;;;5029077;28;20538;-53
2023/04/21 10:24:28;;;;;;;9.57;3.70;;;;;;;;;;5031071;28;20247;-51
2023/04/21 10:26:58;;;;;;;5.27;3.20;;;;;;;;;;5031156;28;20231;-53
2023/04/21 10:29:30;;;;;;;8.33;3.90;;;;;;;;;;5031091;28;20261;-55
2023/04/21 10:31:56;;;;;;;9.93;3.47;;;;;;;;;;5034370;28;20205;-53
2023/04/21 10:34:28;;;;;;;7.50;3.73;;;;;;;;;;5035244;28;20291;-54
2023/04/21 10:37:09;;;;;;;6.17;3.50;;;;;;;;;;5035552;28;20199;-54
2023/04/21 10:39:36;;;;;;;9.23;3.80;;;;;;;;;;5035133;28;20209;-54
2023/04/21 10:42:19;;;;;;;7.30;3.70;;;;;;;;;;5035140;28;20237;-52
2023/04/21 10:44:51;;;;;;;10.17;3.87;;;;;;;;;;5035241;28;20284;-52
2023/04/21 10:47:24;;;;;;;8.17;3.40;;;;;;;;;;5035058;28;20237;-53
2023/04/21 10:49:50;;;;;;;12.97;3.50;;;;;;;;;;5035345;28;20201;-52
2023/04/21 10:52:16;;;;;;;8.67;3.43;;;;;;;;;;5034977;28;20714;-52
2023/04/21 10:54:44;;;;;;;7.47;3.80;;;;;;;;;;5035116;28;20197;-53
2023/04/21 10:57:11;;;;;;;7.03;3.50;;;;;;;;;;5035147;28;20237;-53
2023/04/21 10:59:37;;;;;;;7.10;3.57;;;;;;;;;;5034763;28;20249;-52
2023/04/21 11:02:06;;;;;;;9.37;3.63;;;;;;;;;;5034902;28;20258;-52
2023/04/21 11:04:32;;;;;;;10.63;3.80;;;;;;;;;;5034637;28;20209;-51
2023/04/21 11:07:08;;;;;;;8.30;3.70;;;;;;;;;;5034654;28;20261;-52
2023/04/21 11:09:35;;;;;;;10.87;3.50;;;;;;;;;;5034141;28;20263;-54
2023/04/21 11:12:02;;;;;;;7.40;3.67;;;;;;;;;;5034173;28;20626;-52
2023/04/21 11:14:28;;;;;;;4.87;3.53;;;;;;;;;;5034096;28;20216;-52
2023/04/21 11:16:54;;;;;;;7.43;3.80;;;;;;;;;;5034299;28;20194;-52
2023/04/21 11:19:23;;;;;;;5.50;3.90;;;;;;;;;;5033928;28;20250;-52
2023/04/21 11:21:50;;;;;;;6.87;3.80;;;;;;;;;;5033939;28;20208;-53
2023/04/21 11:24:16;;;;;;;13.00;4.13;;;;;;;;;;5033749;28;20610;-52
2023/04/21 11:26:42;;;;;;;9.67;4.40;;;;;;;;;;5033894;28;20768;-52
2023/04/21 11:29:10;;;;;;;8.37;3.80;;;;;;;;;;5033950;28;20209;-52
2023/04/21 11:31:37;;;;;;;5.87;3.37;;;;;;;;;;5033707;28;20264;-52
2023/04/21 11:34:04;;;;;;;5.47;3.27;;;;;;;;;;5033744;28;20193;-52
2023/04/21 11:36:33;;;;;;;7.13;4.10;;;;;;;;;;5033642;28;20227;-52
2023/04/21 11:38:59;;;;;;;5.27;3.37;;;;;;;;;;5033559;28;20197;-52
2023/04/21 11:41:25;;;;;;;10.03;3.90;;;;;;;;;;5033390;28;20208;-52
2023/04/21 11:43:51;;;;;;;8.73;3.70;;;;;;;;;;5033774;28;20201;-52
2023/04/21 11:46:18;;;;;;;8.37;3.33;;;;;;;;;;5033328;28;20221;-52
2023/04/21 11:48:44;;;;;;;11.77;4.07;;;;;;;;;;5033371;28;20203;-52
2023/04/21 11:51:14;;;;;;;5.37;3.50;;;;;;;;;;5033515;28;20258;-53
2023/04/21 11:53:41;;;;;;;5.63;3.53;;;;;;;;;;5033547;28;20709;-52
2023/04/21 11:56:09;;;;;;;7.73;3.80;;;;;;;;;;5033700;28;20233;-53
2023/04/21 11:58:35;;;;;;;6.77;3.60;;;;;;;;;;5033709;28;20283;-53
2023/04/21 12:01:07;;;;;;;11.00;4.27;;;;;;;;;;5033780;28;20197;-53
2023/04/21 12:03:33;;;;;;;4.37;3.37;;;;;;;;;;5033557;28;20203;-53
2023/04/21 12:05:58;;;;;;;5.50;3.67;;;;;;;;;;5033562;28;20610;-52
2023/04/21 12:08:28;;;;;;;6.13;3.87;;;;;;;;;;5033613;28;20248;-53
2023/04/21 12:10:55;;;;;;;7.07;3.83;;;;;;;;;;5033754;28;20250;-52
2023/04/21 12:13:22;;;;;;;4.93;3.90;;;;;;;;;;5033417;28;20197;-53
2023/04/21 12:15:48;;;;;;;6.27;4.10;;;;;;;;;;5033509;28;20197;-51
2023/04/21 12:18:14;;;;;;;7.77;3.70;;;;;;;;;;5033342;28;20206;-52
2023/04/21 12:20:48;;;;;;;11.77;4.10;;;;;;;;;;5033434;28;20672;-52
2023/04/21 12:23:14;;;;;;;7.87;4.20;;;;;;;;;;5033335;28;20194;-53
2023/04/21 12:25:41;;;;;;;7.30;4.40;;;;;;;;;;5033307;28;20261;-51
2023/04/21 12:28:08;;;;;;;7.40;4.33;;;;;;;;;;5033289;28;20280;-52
2023/04/21 12:30:34;;;;;;;5.07;3.97;;;;;;;;;;5033250;28;20202;-52
2023/04/21 12:33:00;;;;;;;6.23;3.80;;;;;;;;;;5033323;28;20193;-52
2023/04/21 12:35:26;;;;;;;4.27;3.50;;;;;;;;;;5033140;28;20544;-51
2023/04/21 12:37:52;;;;;;;5.83;4.00;;;;;;;;;;5033150;28;20220;-51
2023/04/21 12:40:19;;;;;;;6.60;3.80;;;;;;;;;;5032874;28;20664;-51
2023/04/21 12:42:45;;;;;;;4.00;3.60;;;;;;;;;;5032833;28;20235;-53
2023/04/21 12:45:12;;;;;;;4.50;3.70;;;;;;;;;;5033029;28;20201;-52
2023/04/21 12:47:38;;;;;;;7.23;4.00;;;;;;;;;;5032786;28;20642;-53
2023/04/21 12:50:05;;;;;;;4.73;3.53;;;;;;;;;;5032747;28;20228;-52
2023/04/21 12:52:31;;;;;;;4.17;3.50;;;;;;;;;;5032712;28;20204;-52
2023/04/21 12:54:57;;;;;;;9.23;3.70;;;;;;;;;;5031986;28;20288;-52
2023/04/21 12:57:23;;;;;;;9.57;4.27;;;;;;;;;;5032559;28;20789;-53
2023/04/21 12:59:49;;;;;;;5.20;4.00;;;;;;;;;;5032327;28;20233;-53
2023/04/21 13:02:16;;;;;;;5.67;3.60;;;;;;;;;;5032407;28;20201;-53
2023/04/21 13:04:42;;;;;;;6.97;3.63;;;;;;;;;;5032626;28;20201;-52
2023/04/21 13:07:08;;;;;;;5.40;3.80;;;;;;;;;;5032547;28;20666;-52
2023/04/21 13:09:34;;;;;;;5.43;3.37;;;;;;;;;;5032250;28;20201;-52
2023/04/21 13:12:00;;;;;;;5.63;3.50;;;;;;;;;;5032355;28;20729;-52
2023/04/21 13:14:27;;;;;;;6.33;4.00;;;;;;;;;;5032482;28;20561;-53
2023/04/21 13:16:53;;;;;;;6.83;3.97;;;;;;;;;;5032140;28;20203;-52
2023/04/21 13:19:20;;;;;;;8.40;4.63;;;;;;;;;;5031689;28;20437;-52
2023/04/21 13:21:47;;;;;;;8.67;4.00;;;;;;;;;;5031917;28;20219;-53
2023/04/21 13:24:13;;;;;;;4.63;3.23;;;;;;;;;;5032140;28;20209;-52
2023/04/21 13:26:39;;;;;;;5.57;3.83;;;;;;;;;;5032119;28;20229;-52
2023/04/21 13:29:05;;;;;;;9.23;4.30;;;;;;;;;;5032075;28;20202;-52
2023/04/21 13:31:31;;;;;;;8.17;3.90;;;;;;;;;;5031939;28;20198;-52
2023/04/21 13:33:58;;;;;;;7.40;3.97;;;;;;;;;;5032291;28;20207;-53
2023/04/21 13:36:25;;;;;;;5.80;4.30;;;;;;;;;;5031688;28;20194;-53
2023/04/21 13:38:54;;;;;;;6.63;4.20;;;;;;;;;;5031621;28;20285;-53
2023/04/21 13:41:20;;;;;;;6.67;3.73;;;;;;;;;;5031541;28;20212;-53
2023/04/21 13:43:46;;;;;;;4.97;3.50;;;;;;;;;;5031710;28;20564;-52
2023/04/21 13:46:13;;;;;;;5.63;3.37;;;;;;;;;;5031794;28;20629;-52
2023/04/21 13:48:39;;;;;;;6.37;3.80;;;;;;;;;;5031381;28;20201;-52
2023/04/21 13:51:05;;;;;;;7.00;3.97;;;;;;;;;;5031367;28;20190;-53
2023/04/21 13:53:32;;;;;;;12.37;4.20;;;;;;;;;;5031294;28;20251;-52
2023/04/21 13:55:58;;;;;;;6.77;4.70;;;;;;;;;;5031222;28;20565;-52
2023/04/21 13:58:24;;;;;;;7.10;4.10;;;;;;;;;;5031539;28;20233;-52
2023/04/21 14:00:50;;;;;;;6.53;4.30;;;;;;;;;;5031686;28;20258;-52
2023/04/21 14:03:16;;;;;;;9.93;4.50;;;;;;;;;;5031555;28;20195;-53
2023/04/21 14:05:42;;;;;;;12.97;4.80;;;;;;;;;;5031334;28;20280;-52
2023/04/21 14:08:08;;;;;;;5.73;4.03;;;;;;;;;;5031289;28;20323;-52
2023/04/21 14:10:36;;;;;;;4.63;4.10;;;;;;;;;;5029289;28;20197;-52
2023/04/21 14:13:02;;;;;;;5.80;4.40;;;;;;;;;;5029632;28;20413;-52
2023/04/21 14:15:28;;;;;;;7.73;4.57;;;;;;;;;;5030977;28;20280;-53
2023/04/21 14:17:55;;;;;;;4.17;3.57;;;;;;;;;;5031388;28;20196;-53
2023/04/21 14:20:21;;;;;;;15.53;4.03;;;;;;;;;;5030772;28;20736;-53
2023/04/21 14:22:47;;;;;;;8.70;3.73;;;;;;;;;;5030922;28;20255;-53
2023/04/21 14:25:13;;;;;;;4.53;3.60;;;;;;;;;;5031327;28;20197;-53
2023/04/21 14:27:41;;;;;;;6.27;3.80;;;;;;;;;;5031227;28;20221;-52
2023/04/21 14:30:08;;;;;;;5.47;3.77;;;;;;;;;;5030944;28;20263;-53
2023/04/21 14:32:34;;;;;;;5.20;4.03;;;;;;;;;;5030761;28;20505;-52
2023/04/21 14:35:02;;;;;;;5.73;3.77;;;;;;;;;;5031265;28;20656;-52
2023/04/21 14:37:28;;;;;;;8.03;4.27;;;;;;;;;;5031220;28;20193;-52